sensor_id;sensor_type;location;lat;lon;timestamp;P1;durP1;ratioP1;P2;durP2;ratioP2
63346;SDS011;49472;49.880;8.650;2023-05-10T00:01:15;1.67;;;1.57;;
63346;SDS011;49472;49.880;8.650;2023-05-10T00:03:41;8.30;;;1.80;;
63346;SDS011;49472;49.880;8.650;2023-05-10T00:06:06;1.80;;;1.70;;
63346;SDS011;49472;49.880;8.650;2023-05-10T00:08:31;2.60;;;1.50;;
63346;SDS011;49472;49.880;8.650;2023-05-10T00:10:57;4.53;;;1.57;;
63346;SDS011;49472;49.880;8.650;2023-05-10T00:13:22;2.60;;;1.30;;
63346;SDS011;49472;49.880;8.650;2023-05-10T00:15:47;2.20;;;1.60;;
63346;SDS011;49472;49.880;8.650;2023-05-10T00:18:12;1.93;;;1.60;;
63346;SDS011;49472;49.880;8.650;2023-05-10T00:20:38;2.90;;;1.70;;
63346;SDS011;49472;49.880;8.650;2023-05-10T00:23:03;3.00;;;1.33;;
63346;SDS011;49472;49.880;8.650;2023-05-10T00:25:28;1.57;;;1.47;;
63346;SDS011;49472;49.880;8.650;2023-05-10T00:27:54;8.50;;;1.63;;
63346;SDS011;49472;49.880;8.650;2023-05-10T00:30:22;2.50;;;1.60;;
63346;SDS011;49472;49.880;8.650;2023-05-10T00:32:47;6.90;;;1.70;;
63346;SDS011;49472;49.880;8.650;2023-05-10T00:35:14;2.17;;;1.63;;
63346;SDS011;49472;49.880;8.650;2023-05-10T00:37:40;1.40;;;1.30;;
63346;SDS011;49472;49.880;8.650;2023-05-10T00:40:05;1.63;;;1.60;;
63346;SDS011;49472;49.880;8.650;2023-05-10T00:42:31;2.80;;;1.53;;
63346;SDS011;49472;49.880;8.650;2023-05-10T00:44:56;3.97;;;1.30;;
63346;SDS011;49472;49.880;8.650;2023-05-10T00:47:22;1.73;;;1.63;;
63346;SDS011;49472;49.880;8.650;2023-05-10T00:49:47;2.30;;;1.87;;
63346;SDS011;49472;49.880;8.650;2023-05-10T00:52:13;7.10;;;1.60;;
63346;SDS011;49472;49.880;8.650;2023-05-10T00:54:38;2.07;;;1.40;;
63346;SDS011;49472;49.880;8.650;2023-05-10T00:57:04;8.90;;;2.40;;
63346;SDS011;49472;49.880;8.650;2023-05-10T00:59:29;2.00;;;1.90;;
63346;SDS011;49472;49.880;8.650;2023-05-10T01:01:54;1.90;;;1.80;;
63346;SDS011;49472;49.880;8.650;2023-05-10T01:04:20;2.33;;;2.23;;
63346;SDS011;49472;49.880;8.650;2023-05-10T01:06:50;3.67;;;2.13;;
63346;SDS011;49472;49.880;8.650;2023-05-10T01:09:16;3.50;;;2.07;;
63346;SDS011;49472;49.880;8.650;2023-05-10T01:11:42;2.20;;;2.00;;
63346;SDS011;49472;49.880;8.650;2023-05-10T01:14:07;4.30;;;2.80;;
63346;SDS011;49472;49.880;8.650;2023-05-10T01:16:36;5.67;;;2.60;;
63346;SDS011;49472;49.880;8.650;2023-05-10T01:19:08;3.20;;;2.47;;
63346;SDS011;49472;49.880;8.650;2023-05-10T01:24:40;2.37;;;2.27;;
63346;SDS011;49472;49.880;8.650;2023-05-10T01:27:34;2.10;;;2.00;;
63346;SDS011;49472;49.880;8.650;2023-05-10T01:38:33;2.97;;;2.83;;
63346;SDS011;49472;49.880;8.650;2023-05-10T01:41:33;3.60;;;3.30;;
63346;SDS011;49472;49.880;8.650;2023-05-10T01:44:11;3.00;;;2.80;;
63346;SDS011;49472;49.880;8.650;2023-05-10T01:46:58;3.63;;;3.43;;
63346;SDS011;49472;49.880;8.650;2023-05-10T01:49:32;4.40;;;3.27;;
63346;SDS011;49472;49.880;8.650;2023-05-10T01:52:09;3.30;;;3.10;;
63346;SDS011;49472;49.880;8.650;2023-05-10T01:54:41;4.20;;;3.90;;
63346;SDS011;49472;49.880;8.650;2023-05-10T01:57:09;10.23;;;3.80;;
63346;SDS011;49472;49.880;8.650;2023-05-10T01:59:39;4.80;;;4.50;;
63346;SDS011;49472;49.880;8.650;2023-05-10T02:02:08;4.50;;;3.83;;
63346;SDS011;49472;49.880;8.650;2023-05-10T02:04:37;5.50;;;4.50;;
63346;SDS011;49472;49.880;8.650;2023-05-10T02:07:04;4.53;;;4.10;;
63346;SDS011;49472;49.880;8.650;2023-05-10T02:09:31;4.53;;;4.23;;
63346;SDS011;49472;49.880;8.650;2023-05-10T02:11:58;10.20;;;3.90;;
63346;SDS011;49472;49.880;8.650;2023-05-10T02:14:27;5.60;;;3.60;;
63346;SDS011;49472;49.880;8.650;2023-05-10T02:16:55;4.30;;;4.00;;
63346;SDS011;49472;49.880;8.650;2023-05-10T02:19:23;4.47;;;4.00;;
63346;SDS011;49472;49.880;8.650;2023-05-10T02:21:49;7.60;;;5.30;;
63346;SDS011;49472;49.880;8.650;2023-05-10T02:24:16;4.20;;;3.90;;
63346;SDS011;49472;49.880;8.650;2023-05-10T02:26:42;12.03;;;4.67;;
63346;SDS011;49472;49.880;8.650;2023-05-10T02:29:10;5.43;;;4.90;;
63346;SDS011;49472;49.880;8.650;2023-05-10T02:31:37;8.20;;;5.27;;
63346;SDS011;49472;49.880;8.650;2023-05-10T02:34:04;5.50;;;4.73;;
63346;SDS011;49472;49.880;8.650;2023-05-10T02:36:32;5.40;;;4.93;;
63346;SDS011;49472;49.880;8.650;2023-05-10T02:38:58;6.43;;;4.80;;
63346;SDS011;49472;49.880;8.650;2023-05-10T02:41:26;6.20;;;5.10;;
63346;SDS011;49472;49.880;8.650;2023-05-10T02:43:54;6.37;;;5.40;;
63346;SDS011;49472;49.880;8.650;2023-05-10T02:46:22;5.47;;;4.97;;
63346;SDS011;49472;49.880;8.650;2023-05-10T02:48:48;6.37;;;5.50;;
63346;SDS011;49472;49.880;8.650;2023-05-10T02:51:13;5.90;;;5.40;;
63346;SDS011;49472;49.880;8.650;2023-05-10T02:53:42;5.80;;;5.30;;
63346;SDS011;49472;49.880;8.650;2023-05-10T02:56:12;8.70;;;5.80;;
63346;SDS011;49472;49.880;8.650;2023-05-10T02:58:40;7.50;;;5.20;;
63346;SDS011;49472;49.880;8.650;2023-05-10T03:01:05;5.83;;;5.30;;
63346;SDS011;49472;49.880;8.650;2023-05-10T03:03:32;6.90;;;5.63;;
63346;SDS011;49472;49.880;8.650;2023-05-10T03:05:58;6.43;;;5.93;;
63346;SDS011;49472;49.880;8.650;2023-05-10T03:08:23;6.73;;;6.00;;
63346;SDS011;49472;49.880;8.650;2023-05-10T03:11:38;6.80;;;6.10;;
63346;SDS011;49472;49.880;8.650;2023-05-10T03:13:54;6.60;;;6.10;;
63346;SDS011;49472;49.880;8.650;2023-05-10T03:16:56;8.50;;;6.30;;
63346;SDS011;49472;49.880;8.650;2023-05-10T03:22:08;6.90;;;6.30;;
63346;SDS011;49472;49.880;8.650;2023-05-10T03:24:35;6.73;;;6.13;;
63346;SDS011;49472;49.880;8.650;2023-05-10T03:27:04;8.50;;;6.20;;
63346;SDS011;49472;49.880;8.650;2023-05-10T03:29:30;6.23;;;5.63;;
63346;SDS011;49472;49.880;8.650;2023-05-10T03:32:00;9.70;;;6.70;;
63346;SDS011;49472;49.880;8.650;2023-05-10T03:34:25;7.00;;;6.40;;
63346;SDS011;49472;49.880;8.650;2023-05-10T03:36:51;8.50;;;6.40;;
63346;SDS011;49472;49.880;8.650;2023-05-10T03:39:16;7.63;;;6.97;;
63346;SDS011;49472;49.880;8.650;2023-05-10T03:41:41;7.30;;;6.53;;
63346;SDS011;49472;49.880;8.650;2023-05-10T03:44:07;7.13;;;6.43;;
63346;SDS011;49472;49.880;8.650;2023-05-10T03:46:32;8.50;;;7.30;;
63346;SDS011;49472;49.880;8.650;2023-05-10T03:48:57;8.13;;;6.80;;
63346;SDS011;49472;49.880;8.650;2023-05-10T03:51:23;8.87;;;6.97;;
63346;SDS011;49472;49.880;8.650;2023-05-10T03:53:49;8.13;;;6.50;;
63346;SDS011;49472;49.880;8.650;2023-05-10T03:56:14;9.30;;;6.70;;
63346;SDS011;49472;49.880;8.650;2023-05-10T03:58:40;6.43;;;5.97;;
63346;SDS011;49472;49.880;8.650;2023-05-10T04:01:05;7.73;;;6.73;;
63346;SDS011;49472;49.880;8.650;2023-05-10T04:03:30;9.83;;;6.27;;
63346;SDS011;49472;49.880;8.650;2023-05-10T04:05:59;7.60;;;6.80;;
63346;SDS011;49472;49.880;8.650;2023-05-10T04:08:26;9.97;;;6.67;;
63346;SDS011;49472;49.880;8.650;2023-05-10T04:10:51;7.93;;;7.13;;
63346;SDS011;49472;49.880;8.650;2023-05-10T04:13:16;6.67;;;6.10;;
63346;SDS011;49472;49.880;8.650;2023-05-10T04:15:42;8.23;;;7.07;;
63346;SDS011;49472;49.880;8.650;2023-05-10T04:18:08;7.70;;;6.90;;
63346;SDS011;49472;49.880;8.650;2023-05-10T04:20:33;7.60;;;6.80;;
63346;SDS011;49472;49.880;8.650;2023-05-10T04:22:59;8.57;;;7.70;;
63346;SDS011;49472;49.880;8.650;2023-05-10T04:25:24;7.30;;;6.60;;
63346;SDS011;49472;49.880;8.650;2023-05-10T04:27:49;9.43;;;7.13;;
63346;SDS011;49472;49.880;8.650;2023-05-10T04:30:15;6.80;;;6.20;;
63346;SDS011;49472;49.880;8.650;2023-05-10T04:32:40;11.33;;;7.67;;
63346;SDS011;49472;49.880;8.650;2023-05-10T04:35:05;9.80;;;7.10;;
63346;SDS011;49472;49.880;8.650;2023-05-10T04:37:31;7.27;;;6.70;;
63346;SDS011;49472;49.880;8.650;2023-05-10T04:39:56;8.17;;;7.30;;
63346;SDS011;49472;49.880;8.650;2023-05-10T04:42:21;10.07;;;7.13;;
63346;SDS011;49472;49.880;8.650;2023-05-10T04:44:47;9.90;;;7.50;;
63346;SDS011;49472;49.880;8.650;2023-05-10T04:47:12;13.40;;;8.00;;
63346;SDS011;49472;49.880;8.650;2023-05-10T04:49:38;8.70;;;7.80;;
63346;SDS011;49472;49.880;8.650;2023-05-10T04:52:03;8.40;;;7.70;;
63346;SDS011;49472;49.880;8.650;2023-05-10T04:54:28;8.93;;;8.03;;
63346;SDS011;49472;49.880;8.650;2023-05-10T04:56:54;8.87;;;7.70;;
63346;SDS011;49472;49.880;8.650;2023-05-10T04:59:19;13.77;;;8.00;;
63346;SDS011;49472;49.880;8.650;2023-05-10T05:01:44;12.57;;;8.83;;
63346;SDS011;49472;49.880;8.650;2023-05-10T05:04:09;8.70;;;7.23;;
63346;SDS011;49472;49.880;8.650;2023-05-10T05:06:35;8.30;;;7.60;;
63346;SDS011;49472;49.880;8.650;2023-05-10T05:09:00;12.50;;;8.80;;
63346;SDS011;49472;49.880;8.650;2023-05-10T05:11:25;10.30;;;9.20;;
63346;SDS011;49472;49.880;8.650;2023-05-10T05:13:51;8.33;;;7.50;;
63346;SDS011;49472;49.880;8.650;2023-05-10T05:16:16;13.07;;;8.13;;
63346;SDS011;49472;49.880;8.650;2023-05-10T05:18:42;9.60;;;8.73;;
63346;SDS011;49472;49.880;8.650;2023-05-10T05:21:14;15.20;;;8.27;;
63346;SDS011;49472;49.880;8.650;2023-05-10T05:23:40;10.53;;;8.40;;
63346;SDS011;49472;49.880;8.650;2023-05-10T05:26:05;8.53;;;7.73;;
63346;SDS011;49472;49.880;8.650;2023-05-10T05:28:30;9.80;;;8.80;;
63346;SDS011;49472;49.880;8.650;2023-05-10T05:30:58;8.57;;;7.77;;
63346;SDS011;49472;49.880;8.650;2023-05-10T05:33:24;10.77;;;8.27;;
63346;SDS011;49472;49.880;8.650;2023-05-10T05:35:49;9.83;;;7.40;;
63346;SDS011;49472;49.880;8.650;2023-05-10T05:38:15;8.43;;;7.73;;
63346;SDS011;49472;49.880;8.650;2023-05-10T05:40:41;10.10;;;7.73;;
63346;SDS011;49472;49.880;8.650;2023-05-10T05:43:06;8.63;;;7.73;;
63346;SDS011;49472;49.880;8.650;2023-05-10T05:45:31;8.73;;;7.83;;
63346;SDS011;49472;49.880;8.650;2023-05-10T05:47:57;12.13;;;8.13;;
63346;SDS011;49472;49.880;8.650;2023-05-10T05:50:22;9.50;;;8.30;;
63346;SDS011;49472;49.880;8.650;2023-05-10T05:52:47;11.90;;;8.00;;
63346;SDS011;49472;49.880;8.650;2023-05-10T05:55:13;19.57;;;8.30;;
63346;SDS011;49472;49.880;8.650;2023-05-10T05:57:38;18.40;;;8.77;;
63346;SDS011;49472;49.880;8.650;2023-05-10T06:00:04;10.63;;;8.50;;
63346;SDS011;49472;49.880;8.650;2023-05-10T06:02:29;11.97;;;8.30;;
63346;SDS011;49472;49.880;8.650;2023-05-10T06:04:55;11.80;;;9.37;;
63346;SDS011;49472;49.880;8.650;2023-05-10T06:07:20;9.37;;;8.47;;
63346;SDS011;49472;49.880;8.650;2023-05-10T06:09:45;13.23;;;9.90;;
63346;SDS011;49472;49.880;8.650;2023-05-10T06:12:11;12.73;;;8.60;;
63346;SDS011;49472;49.880;8.650;2023-05-10T06:14:36;9.53;;;8.43;;
63346;SDS011;49472;49.880;8.650;2023-05-10T06:17:02;9.33;;;8.30;;
63346;SDS011;49472;49.880;8.650;2023-05-10T06:19:28;8.83;;;7.93;;
63346;SDS011;49472;49.880;8.650;2023-05-10T06:21:54;9.53;;;8.40;;
63346;SDS011;49472;49.880;8.650;2023-05-10T06:24:19;11.73;;;9.47;;
63346;SDS011;49472;49.880;8.650;2023-05-10T06:26:44;9.67;;;8.63;;
63346;SDS011;49472;49.880;8.650;2023-05-10T06:29:10;10.00;;;9.20;;
63346;SDS011;49472;49.880;8.650;2023-05-10T06:31:35;10.80;;;9.73;;
63346;SDS011;49472;49.880;8.650;2023-05-10T06:34:00;11.07;;;9.90;;
63346;SDS011;49472;49.880;8.650;2023-05-10T06:36:26;11.23;;;10.20;;
63346;SDS011;49472;49.880;8.650;2023-05-10T06:38:52;10.73;;;9.83;;
63346;SDS011;49472;49.880;8.650;2023-05-10T06:41:17;12.90;;;10.20;;
63346;SDS011;49472;49.880;8.650;2023-05-10T06:43:42;14.80;;;11.60;;
63346;SDS011;49472;49.880;8.650;2023-05-10T06:46:08;15.60;;;10.73;;
63346;SDS011;49472;49.880;8.650;2023-05-10T06:48:33;12.27;;;11.10;;
63346;SDS011;49472;49.880;8.650;2023-05-10T06:50:59;12.60;;;10.50;;
63346;SDS011;49472;49.880;8.650;2023-05-10T06:53:24;13.33;;;10.60;;
63346;SDS011;49472;49.880;8.650;2023-05-10T06:55:50;11.33;;;10.20;;
63346;SDS011;49472;49.880;8.650;2023-05-10T06:58:15;11.53;;;10.40;;
63346;SDS011;49472;49.880;8.650;2023-05-10T07:00:41;11.43;;;10.27;;
63346;SDS011;49472;49.880;8.650;2023-05-10T07:03:08;11.47;;;10.37;;
63346;SDS011;49472;49.880;8.650;2023-05-10T07:05:37;14.63;;;11.50;;
63346;SDS011;49472;49.880;8.650;2023-05-10T07:08:02;14.30;;;11.40;;
63346;SDS011;49472;49.880;8.650;2023-05-10T07:10:28;16.17;;;12.37;;
63346;SDS011;49472;49.880;8.650;2023-05-10T07:12:53;20.50;;;11.87;;
63346;SDS011;49472;49.880;8.650;2023-05-10T07:15:18;11.23;;;10.27;;
63346;SDS011;49472;49.880;8.650;2023-05-10T07:17:43;13.70;;;12.40;;
63346;SDS011;49472;49.880;8.650;2023-05-10T07:20:09;12.83;;;11.73;;
63346;SDS011;49472;49.880;8.650;2023-05-10T07:22:34;12.60;;;11.37;;
63346;SDS011;49472;49.880;8.650;2023-05-10T07:25:00;12.47;;;11.33;;
63346;SDS011;49472;49.880;8.650;2023-05-10T07:27:25;11.67;;;10.47;;
63346;SDS011;49472;49.880;8.650;2023-05-10T07:29:50;11.70;;;10.60;;
63346;SDS011;49472;49.880;8.650;2023-05-10T07:32:16;12.10;;;10.93;;
63346;SDS011;49472;49.880;8.650;2023-05-10T07:34:41;14.23;;;10.83;;
63346;SDS011;49472;49.880;8.650;2023-05-10T07:37:06;14.50;;;10.70;;
63346;SDS011;49472;49.880;8.650;2023-05-10T07:39:32;12.13;;;11.03;;
63346;SDS011;49472;49.880;8.650;2023-05-10T07:41:57;15.73;;;11.77;;
63346;SDS011;49472;49.880;8.650;2023-05-10T07:44:23;11.60;;;10.50;;
63346;SDS011;49472;49.880;8.650;2023-05-10T07:46:48;11.27;;;10.17;;
63346;SDS011;49472;49.880;8.650;2023-05-10T07:49:14;11.73;;;10.33;;
63346;SDS011;49472;49.880;8.650;2023-05-10T07:51:39;13.67;;;10.90;;
63346;SDS011;49472;49.880;8.650;2023-05-10T07:54:04;12.67;;;11.60;;
63346;SDS011;49472;49.880;8.650;2023-05-10T07:56:30;12.00;;;10.80;;
63346;SDS011;49472;49.880;8.650;2023-05-10T07:58:57;12.33;;;9.80;;
63346;SDS011;49472;49.880;8.650;2023-05-10T08:01:29;11.30;;;10.30;;
63346;SDS011;49472;49.880;8.650;2023-05-10T08:03:55;12.70;;;10.60;;
63346;SDS011;49472;49.880;8.650;2023-05-10T08:06:21;12.10;;;10.80;;
63346;SDS011;49472;49.880;8.650;2023-05-10T08:08:47;12.03;;;10.70;;
63346;SDS011;49472;49.880;8.650;2023-05-10T08:11:18;11.30;;;10.40;;
63346;SDS011;49472;49.880;8.650;2023-05-10T08:13:46;11.10;;;10.00;;
63346;SDS011;49472;49.880;8.650;2023-05-10T08:16:13;11.80;;;10.90;;
63346;SDS011;49472;49.880;8.650;2023-05-10T08:18:39;11.00;;;10.20;;
63346;SDS011;49472;49.880;8.650;2023-05-10T08:21:05;12.77;;;10.10;;
63346;SDS011;49472;49.880;8.650;2023-05-10T08:23:30;10.30;;;9.30;;
63346;SDS011;49472;49.880;8.650;2023-05-10T08:25:56;10.50;;;9.80;;
63346;SDS011;49472;49.880;8.650;2023-05-10T08:28:21;10.47;;;9.77;;
63346;SDS011;49472;49.880;8.650;2023-05-10T08:30:46;9.90;;;9.10;;
63346;SDS011;49472;49.880;8.650;2023-05-10T08:33:12;7.10;;;6.53;;
63346;SDS011;49472;49.880;8.650;2023-05-10T08:35:37;6.93;;;6.32;;
63346;SDS011;49472;49.880;8.650;2023-05-10T08:38:02;6.17;;;5.63;;
63346;SDS011;49472;49.880;8.650;2023-05-10T08:40:28;16.73;;;7.70;;
63346;SDS011;49472;49.880;8.650;2023-05-10T08:42:58;9.00;;;6.20;;
63346;SDS011;49472;49.880;8.650;2023-05-10T08:45:32;8.30;;;7.60;;
63346;SDS011;49472;49.880;8.650;2023-05-10T08:48:00;7.70;;;6.90;;
63346;SDS011;49472;49.880;8.650;2023-05-10T08:50:26;10.83;;;6.20;;
63346;SDS011;49472;49.880;8.650;2023-05-10T08:52:52;7.43;;;6.73;;
63346;SDS011;49472;49.880;8.650;2023-05-10T08:55:23;10.50;;;8.10;;
63346;SDS011;49472;49.880;8.650;2023-05-10T08:57:49;6.83;;;6.17;;
63346;SDS011;49472;49.880;8.650;2023-05-10T09:00:14;7.83;;;7.17;;
63346;SDS011;49472;49.880;8.650;2023-05-10T09:02:41;7.40;;;6.80;;
63346;SDS011;49472;49.880;8.650;2023-05-10T09:05:08;9.00;;;8.13;;
63346;SDS011;49472;49.880;8.650;2023-05-10T09:07:34;10.63;;;8.70;;
63346;SDS011;49472;49.880;8.650;2023-05-10T09:10:00;9.70;;;8.70;;
63346;SDS011;49472;49.880;8.650;2023-05-10T09:12:26;9.70;;;7.53;;
63346;SDS011;49472;49.880;8.650;2023-05-10T09:14:52;8.70;;;7.90;;
63346;SDS011;49472;49.880;8.650;2023-05-10T09:17:19;8.50;;;7.80;;
63346;SDS011;49472;49.880;8.650;2023-05-10T09:19:45;8.90;;;8.00;;
63346;SDS011;49472;49.880;8.650;2023-05-10T09:22:10;8.20;;;7.50;;
63346;SDS011;49472;49.880;8.650;2023-05-10T09:24:36;8.90;;;8.10;;
63346;SDS011;49472;49.880;8.650;2023-05-10T09:27:07;9.53;;;7.10;;
63346;SDS011;49472;49.880;8.650;2023-05-10T09:29:39;7.20;;;6.57;;
63346;SDS011;49472;49.880;8.650;2023-05-10T09:32:06;8.90;;;8.30;;
63346;SDS011;49472;49.880;8.650;2023-05-10T09:34:32;8.63;;;7.93;;
63346;SDS011;49472;49.880;8.650;2023-05-10T09:37:00;8.23;;;7.73;;
63346;SDS011;49472;49.880;8.650;2023-05-10T09:39:34;8.60;;;8.10;;
63346;SDS011;49472;49.880;8.650;2023-05-10T09:42:05;10.07;;;7.70;;
63346;SDS011;49472;49.880;8.650;2023-05-10T09:44:32;7.33;;;6.80;;
63346;SDS011;49472;49.880;8.650;2023-05-10T09:46:58;8.27;;;4.20;;
63346;SDS011;49472;49.880;8.650;2023-05-10T09:49:25;7.13;;;2.90;;
63346;SDS011;49472;49.880;8.650;2023-05-10T09:52:00;4.33;;;2.70;;
63346;SDS011;49472;49.880;8.650;2023-05-10T09:54:34;2.97;;;2.87;;
63346;SDS011;49472;49.880;8.650;2023-05-10T09:57:00;6.03;;;3.90;;
63346;SDS011;49472;49.880;8.650;2023-05-10T09:59:26;5.20;;;4.63;;
63346;SDS011;49472;49.880;8.650;2023-05-10T10:01:59;5.40;;;5.10;;
63346;SDS011;49472;49.880;8.650;2023-05-10T10:04:25;7.30;;;5.17;;
63346;SDS011;49472;49.880;8.650;2023-05-10T10:07:03;5.97;;;5.57;;
63346;SDS011;49472;49.880;8.650;2023-05-10T10:09:29;5.60;;;5.20;;
63346;SDS011;49472;49.880;8.650;2023-05-10T10:11:55;6.17;;;5.80;;
63346;SDS011;49472;49.880;8.650;2023-05-10T10:14:21;8.63;;;6.53;;
63346;SDS011;49472;49.880;8.650;2023-05-10T10:16:48;6.37;;;5.87;;
63346;SDS011;49472;49.880;8.650;2023-05-10T10:19:14;6.63;;;6.03;;
63346;SDS011;49472;49.880;8.650;2023-05-10T10:21:40;6.60;;;6.10;;
63346;SDS011;49472;49.880;8.650;2023-05-10T10:24:05;6.60;;;6.20;;
63346;SDS011;49472;49.880;8.650;2023-05-10T10:26:33;6.77;;;6.17;;
63346;SDS011;49472;49.880;8.650;2023-05-10T10:29:02;7.03;;;6.43;;
63346;SDS011;49472;49.880;8.650;2023-05-10T10:34:45;6.50;;;6.10;;
63346;SDS011;49472;49.880;8.650;2023-05-10T10:37:04;6.90;;;6.60;;
63346;SDS011;49472;49.880;8.650;2023-05-10T10:39:31;7.90;;;7.50;;
63346;SDS011;49472;49.880;8.650;2023-05-10T10:41:57;7.93;;;7.53;;
63346;SDS011;49472;49.880;8.650;2023-05-10T10:49:50;8.10;;;7.50;;
63346;SDS011;49472;49.880;8.650;2023-05-10T10:52:23;8.97;;;8.40;;
63346;SDS011;49472;49.880;8.650;2023-05-10T10:57:25;8.80;;;7.90;;
63346;SDS011;49472;49.880;8.650;2023-05-10T10:59:51;9.07;;;8.50;;
63346;SDS011;49472;49.880;8.650;2023-05-10T11:02:42;9.00;;;8.40;;
63346;SDS011;49472;49.880;8.650;2023-05-10T11:07:54;9.50;;;8.80;;
63346;SDS011;49472;49.880;8.650;2023-05-10T11:10:24;13.13;;;8.70;;
63346;SDS011;49472;49.880;8.650;2023-05-10T11:12:51;9.30;;;8.80;;
63346;SDS011;49472;49.880;8.650;2023-05-10T11:15:18;8.53;;;8.03;;
63346;SDS011;49472;49.880;8.650;2023-05-10T11:17:44;10.00;;;9.03;;
63346;SDS011;49472;49.880;8.650;2023-05-10T11:20:13;9.70;;;8.90;;
63346;SDS011;49472;49.880;8.650;2023-05-10T11:22:52;9.27;;;8.67;;
63346;SDS011;49472;49.880;8.650;2023-05-10T11:25:18;9.83;;;9.10;;
63346;SDS011;49472;49.880;8.650;2023-05-10T11:27:43;9.10;;;8.43;;
63346;SDS011;49472;49.880;8.650;2023-05-10T11:30:10;10.10;;;9.23;;
63346;SDS011;49472;49.880;8.650;2023-05-10T11:32:39;9.07;;;8.47;;
63346;SDS011;49472;49.880;8.650;2023-05-10T11:35:11;9.50;;;8.80;;
63346;SDS011;49472;49.880;8.650;2023-05-10T11:37:38;9.90;;;9.30;;
63346;SDS011;49472;49.880;8.650;2023-05-10T11:40:07;8.77;;;8.27;;
63346;SDS011;49472;49.880;8.650;2023-05-10T11:42:35;9.40;;;8.97;;
63346;SDS011;49472;49.880;8.650;2023-05-10T11:45:02;9.57;;;8.77;;
63346;SDS011;49472;49.880;8.650;2023-05-10T11:47:27;9.87;;;9.37;;
63346;SDS011;49472;49.880;8.650;2023-05-10T11:49:53;11.17;;;10.47;;
63346;SDS011;49472;49.880;8.650;2023-05-10T11:52:18;12.20;;;11.50;;
63346;SDS011;49472;49.880;8.650;2023-05-10T11:54:45;11.40;;;10.80;;
63346;SDS011;49472;49.880;8.650;2023-05-10T11:57:20;13.30;;;12.60;;
63346;SDS011;49472;49.880;8.650;2023-05-10T11:59:53;11.43;;;10.87;;
63346;SDS011;49472;49.880;8.650;2023-05-10T12:02:19;10.83;;;10.23;;
63346;SDS011;49472;49.880;8.650;2023-05-10T12:04:45;11.60;;;10.90;;
63346;SDS011;49472;49.880;8.650;2023-05-10T12:07:11;12.80;;;12.13;;
63346;SDS011;49472;49.880;8.650;2023-05-10T12:09:36;13.03;;;12.33;;
63346;SDS011;49472;49.880;8.650;2023-05-10T12:12:02;14.20;;;13.50;;
63346;SDS011;49472;49.880;8.650;2023-05-10T12:14:27;14.87;;;13.80;;
63346;SDS011;49472;49.880;8.650;2023-05-10T12:16:53;13.80;;;13.10;;
63346;SDS011;49472;49.880;8.650;2023-05-10T12:19:21;13.33;;;12.63;;
63346;SDS011;49472;49.880;8.650;2023-05-10T12:21:47;14.20;;;13.10;;
63346;SDS011;49472;49.880;8.650;2023-05-10T12:24:13;13.70;;;12.80;;
63346;SDS011;49472;49.880;8.650;2023-05-10T12:26:39;13.70;;;12.80;;
63346;SDS011;49472;49.880;8.650;2023-05-10T12:29:17;14.63;;;13.73;;
63346;SDS011;49472;49.880;8.650;2023-05-10T12:31:50;13.63;;;12.33;;
63346;SDS011;49472;49.880;8.650;2023-05-10T12:34:23;12.37;;;11.57;;
63346;SDS011;49472;49.880;8.650;2023-05-10T12:36:55;13.50;;;12.80;;
63346;SDS011;49472;49.880;8.650;2023-05-10T12:39:20;13.67;;;12.70;;
63346;SDS011;49472;49.880;8.650;2023-05-10T12:41:46;14.23;;;13.40;;
63346;SDS011;49472;49.880;8.650;2023-05-10T12:44:11;14.83;;;13.80;;
63346;SDS011;49472;49.880;8.650;2023-05-10T12:46:36;14.95;;;14.05;;
63346;SDS011;49472;49.880;8.650;2023-05-10T12:49:02;16.20;;;14.73;;
63346;SDS011;49472;49.880;8.650;2023-05-10T12:51:27;15.80;;;14.80;;
63346;SDS011;49472;49.880;8.650;2023-05-10T12:53:52;15.30;;;13.75;;
63346;SDS011;49472;49.880;8.650;2023-05-10T12:56:19;13.80;;;12.90;;
63346;SDS011;49472;49.880;8.650;2023-05-10T12:58:45;14.00;;;13.20;;
63346;SDS011;49472;49.880;8.650;2023-05-10T13:01:12;14.10;;;12.67;;
63346;SDS011;49472;49.880;8.650;2023-05-10T13:03:38;13.23;;;12.53;;
63346;SDS011;49472;49.880;8.650;2023-05-10T13:06:04;14.07;;;12.80;;
63346;SDS011;49472;49.880;8.650;2023-05-10T13:08:29;14.03;;;13.23;;
63346;SDS011;49472;49.880;8.650;2023-05-10T13:10:58;13.50;;;12.60;;
63346;SDS011;49472;49.880;8.650;2023-05-10T13:13:24;13.57;;;12.67;;
63346;SDS011;49472;49.880;8.650;2023-05-10T13:15:49;13.70;;;13.00;;
63346;SDS011;49472;49.880;8.650;2023-05-10T13:18:14;13.37;;;12.57;;
63346;SDS011;49472;49.880;8.650;2023-05-10T13:20:39;13.80;;;13.10;;
63346;SDS011;49472;49.880;8.650;2023-05-10T13:23:05;13.90;;;13.20;;
63346;SDS011;49472;49.880;8.650;2023-05-10T13:25:30;13.57;;;12.67;;
63346;SDS011;49472;49.880;8.650;2023-05-10T13:27:56;13.50;;;12.57;;
63346;SDS011;49472;49.880;8.650;2023-05-10T13:30:21;13.90;;;13.20;;
63346;SDS011;49472;49.880;8.650;2023-05-10T13:32:46;14.27;;;13.27;;
63346;SDS011;49472;49.880;8.650;2023-05-10T13:35:11;13.70;;;12.60;;
63346;SDS011;49472;49.880;8.650;2023-05-10T13:37:37;14.07;;;13.00;;
63346;SDS011;49472;49.880;8.650;2023-05-10T13:40:02;14.23;;;13.30;;
63346;SDS011;49472;49.880;8.650;2023-05-10T13:42:29;13.70;;;12.70;;
63346;SDS011;49472;49.880;8.650;2023-05-10T13:44:54;13.00;;;12.10;;
63346;SDS011;49472;49.880;8.650;2023-05-10T13:47:20;14.10;;;13.20;;
63346;SDS011;49472;49.880;8.650;2023-05-10T13:49:46;13.23;;;12.18;;
63346;SDS011;49472;49.880;8.650;2023-05-10T13:52:12;14.20;;;13.20;;
63346;SDS011;49472;49.880;8.650;2023-05-10T13:54:37;14.45;;;13.00;;
63346;SDS011;49472;49.880;8.650;2023-05-10T13:57:03;14.20;;;13.25;;
63346;SDS011;49472;49.880;8.650;2023-05-10T13:59:29;13.35;;;12.45;;
63346;SDS011;49472;49.880;8.650;2023-05-10T14:01:56;14.10;;;13.30;;
63346;SDS011;49472;49.880;8.650;2023-05-10T14:04:22;15.32;;;14.07;;
63346;SDS011;49472;49.880;8.650;2023-05-10T14:06:47;14.23;;;13.33;;
63346;SDS011;49472;49.880;8.650;2023-05-10T14:09:13;12.43;;;11.83;;
63346;SDS011;49472;49.880;8.650;2023-05-10T14:11:38;14.10;;;12.55;;
63346;SDS011;49472;49.880;8.650;2023-05-10T14:14:07;13.50;;;12.50;;
63346;SDS011;49472;49.880;8.650;2023-05-10T14:16:33;13.55;;;12.45;;
63346;SDS011;49472;49.880;8.650;2023-05-10T14:18:58;15.77;;;13.57;;
63346;SDS011;49472;49.880;8.650;2023-05-10T14:21:24;13.97;;;12.70;;
63346;SDS011;49472;49.880;8.650;2023-05-10T14:23:49;13.80;;;13.00;;
63346;SDS011;49472;49.880;8.650;2023-05-10T14:26:15;13.13;;;12.37;;
63346;SDS011;49472;49.880;8.650;2023-05-10T14:28:40;13.77;;;12.90;;
63346;SDS011;49472;49.880;8.650;2023-05-10T14:31:05;13.40;;;12.50;;
63346;SDS011;49472;49.880;8.650;2023-05-10T14:33:31;14.27;;;13.20;;
63346;SDS011;49472;49.880;8.650;2023-05-10T14:35:56;15.10;;;13.57;;
63346;SDS011;49472;49.880;8.650;2023-05-10T14:38:22;15.03;;;14.03;;
63346;SDS011;49472;49.880;8.650;2023-05-10T14:40:48;15.03;;;13.60;;
63346;SDS011;49472;49.880;8.650;2023-05-10T14:43:13;14.43;;;13.53;;
63346;SDS011;49472;49.880;8.650;2023-05-10T14:45:38;13.37;;;12.57;;
63346;SDS011;49472;49.880;8.650;2023-05-10T14:48:04;14.07;;;13.13;;
63346;SDS011;49472;49.880;8.650;2023-05-10T14:50:29;13.70;;;12.90;;
63346;SDS011;49472;49.880;8.650;2023-05-10T14:52:56;15.27;;;14.27;;
63346;SDS011;49472;49.880;8.650;2023-05-10T14:55:21;14.27;;;13.23;;
63346;SDS011;49472;49.880;8.650;2023-05-10T14:57:47;15.40;;;14.40;;
63346;SDS011;49472;49.880;8.650;2023-05-10T15:00:14;15.13;;;13.77;;
63346;SDS011;49472;49.880;8.650;2023-05-10T15:02:40;13.57;;;12.70;;
63346;SDS011;49472;49.880;8.650;2023-05-10T15:05:06;15.13;;;13.88;;